OAR weather

Marina Municipal Airport
Marina, California, United States

Public forecast

Using degrees Fahrenheit for public forecast. Weather courtesy of forecast.io.

Closest aviation weather report (METAR) to Marina Municipal Airport

Closest report is Monterey Peninsula Airport, 6.9 nm (12.8 km) SW. Retrieved 2019/10/22 04:54 UTC (49 minutes ago):

KMRY 220454Z AUTO 00000KT 10SM CLR 17/08 A3014 RMK AO2 SLP218 T01670083

Closest aviation forecast (TAF) to Marina Municipal Airport

Closest forecast is Monterey Peninsula Airport, 6.9 nm (12.8 km) SW. Retrieved 2019-10-22 00:34 UTC (5 hours ago):

TAF KMRY 212332Z 2200/2224 31006KT P6SM SKC FM220200 VRB03KT P6SM SKC FM220400 11004KT P6SM SKC FM221600 00000KT P6SM SKC FM222100 32005KT P6SM SKC